sensor_id;sensor_type;location;lat;lon;timestamp;pressure;altitude;pressure_sealevel;temperature;humidity
46724;BME280;32463;48.298;11.620;2023-04-02T00:02:46;95513.81;;;7.08;100.00
46724;BME280;32463;48.298;11.620;2023-04-02T00:07:50;95522.41;;;7.17;100.00
46724;BME280;32463;48.298;11.620;2023-04-02T00:10:28;95524.97;;;7.17;100.00
46724;BME280;32463;48.298;11.620;2023-04-02T00:13:04;95522.91;;;7.20;100.00
46724;BME280;32463;48.298;11.620;2023-04-02T00:15:32;95526.78;;;7.24;100.00
46724;BME280;32463;48.298;11.620;2023-04-02T00:17:59;95527.13;;;7.29;100.00
46724;BME280;32463;48.298;11.620;2023-04-02T00:20:27;95519.53;;;7.28;100.00
46724;BME280;32463;48.298;11.620;2023-04-02T00:22:56;95519.19;;;7.23;100.00
46724;BME280;32463;48.298;11.620;2023-04-02T00:25:26;95523.22;;;7.17;100.00
46724;BME280;32463;48.298;11.620;2023-04-02T00:27:54;95520.59;;;7.09;100.00
46724;BME280;32463;48.298;11.620;2023-04-02T00:30:21;95522.53;;;7.07;100.00
46724;BME280;32463;48.298;11.620;2023-04-02T00:32:48;95523.47;;;7.06;100.00
46724;BME280;32463;48.298;11.620;2023-04-02T00:35:22;95522.84;;;7.04;100.00
46724;BME280;32463;48.298;11.620;2023-04-02T00:37:50;95532.34;;;7.03;100.00
46724;BME280;32463;48.298;11.620;2023-04-02T00:40:23;95525.91;;;6.99;100.00
46724;BME280;32463;48.298;11.620;2023-04-02T00:42:53;95521.53;;;6.92;100.00
46724;BME280;32463;48.298;11.620;2023-04-02T00:45:26;95526.03;;;6.90;100.00
46724;BME280;32463;48.298;11.620;2023-04-02T00:47:55;95527.63;;;6.91;100.00
46724;BME280;32463;48.298;11.620;2023-04-02T00:50:29;95529.25;;;6.92;100.00
46724;BME280;32463;48.298;11.620;2023-04-02T00:52:58;95527.03;;;6.97;100.00
46724;BME280;32463;48.298;11.620;2023-04-02T00:55:37;95525.09;;;6.99;100.00
46724;BME280;32463;48.298;11.620;2023-04-02T00:58:26;95528.34;;;7.09;100.00
46724;BME280;32463;48.298;11.620;2023-04-02T01:00:54;95527.69;;;7.07;100.00
46724;BME280;32463;48.298;11.620;2023-04-02T01:05:50;95525.75;;;7.09;100.00
46724;BME280;32463;48.298;11.620;2023-04-02T01:11:29;95530.59;;;7.12;100.00
46724;BME280;32463;48.298;11.620;2023-04-02T01:14:19;95528.66;;;7.14;100.00
46724;BME280;32463;48.298;11.620;2023-04-02T01:22:49;95526.41;;;7.03;100.00
46724;BME280;32463;48.298;11.620;2023-04-02T01:25:38;95531.72;;;7.01;100.00
46724;BME280;32463;48.298;11.620;2023-04-02T01:28:31;95534.91;;;7.03;100.00
46724;BME280;32463;48.298;11.620;2023-04-02T01:31:01;95535.09;;;7.02;100.00
46724;BME280;32463;48.298;11.620;2023-04-02T01:33:31;95543.28;;;6.97;100.00
46724;BME280;32463;48.298;11.620;2023-04-02T01:36:09;95547.97;;;7.02;100.00
46724;BME280;32463;48.298;11.620;2023-04-02T01:38:49;95540.56;;;6.99;100.00
46724;BME280;32463;48.298;11.620;2023-04-02T01:42:18;95542.19;;;7.00;100.00
46724;BME280;32463;48.298;11.620;2023-04-02T01:44:23;95551.19;;;6.96;100.00
46724;BME280;32463;48.298;11.620;2023-04-02T01:46:52;95546.31;;;6.93;100.00
46724;BME280;32463;48.298;11.620;2023-04-02T01:49:20;95555.03;;;6.92;100.00
46724;BME280;32463;48.298;11.620;2023-04-02T01:51:53;95557.44;;;6.93;100.00
46724;BME280;32463;48.298;11.620;2023-04-02T01:54:21;95558.72;;;6.89;100.00
46724;BME280;32463;48.298;11.620;2023-04-02T01:56:49;95559.66;;;6.88;100.00
46724;BME280;32463;48.298;11.620;2023-04-02T01:59:18;95563.72;;;6.91;100.00
46724;BME280;32463;48.298;11.620;2023-04-02T02:02:05;95560.47;;;6.89;100.00
46724;BME280;32463;48.298;11.620;2023-04-02T02:04:32;95561.78;;;6.93;100.00
46724;BME280;32463;48.298;11.620;2023-04-02T02:07:00;95568.88;;;6.91;100.00
46724;BME280;32463;48.298;11.620;2023-04-02T02:09:36;95565.94;;;6.86;100.00
46724;BME280;32463;48.298;11.620;2023-04-02T02:12:03;95568.81;;;6.83;100.00
46724;BME280;32463;48.298;11.620;2023-04-02T02:14:31;95571.91;;;6.86;100.00
46724;BME280;32463;48.298;11.620;2023-04-02T02:16:59;95581.03;;;6.81;100.00
46724;BME280;32463;48.298;11.620;2023-04-02T02:19:36;95572.81;;;6.77;100.00
46724;BME280;32463;48.298;11.620;2023-04-02T02:24:52;95582.28;;;6.68;100.00
46724;BME280;32463;48.298;11.620;2023-04-02T02:32:22;95589.59;;;6.55;100.00
46724;BME280;32463;48.298;11.620;2023-04-02T02:35:02;95593.13;;;6.54;100.00
46724;BME280;32463;48.298;11.620;2023-04-02T02:37:39;95593.44;;;6.51;100.00
46724;BME280;32463;48.298;11.620;2023-04-02T02:40:12;95602.94;;;6.51;100.00
46724;BME280;32463;48.298;11.620;2023-04-02T02:42:46;95601.81;;;6.53;100.00
46724;BME280;32463;48.298;11.620;2023-04-02T02:45:21;95605.34;;;6.52;100.00
46724;BME280;32463;48.298;11.620;2023-04-02T02:47:50;95613.75;;;6.54;100.00
46724;BME280;32463;48.298;11.620;2023-04-02T02:50:21;95612.63;;;6.57;100.00
46724;BME280;32463;48.298;11.620;2023-04-02T02:52:54;95612.63;;;6.57;100.00
46724;BME280;32463;48.298;11.620;2023-04-02T02:55:23;95605.06;;;6.55;100.00
46724;BME280;32463;48.298;11.620;2023-04-02T02:57:53;95606.38;;;6.59;100.00
46724;BME280;32463;48.298;11.620;2023-04-02T03:00:21;95618.88;;;6.54;100.00
46724;BME280;32463;48.298;11.620;2023-04-02T03:02:49;95617.94;;;6.55;100.00
46724;BME280;32463;48.298;11.620;2023-04-02T03:05:23;95618.88;;;6.54;100.00
46724;BME280;32463;48.298;11.620;2023-04-02T03:07:54;95624.53;;;6.58;100.00
46724;BME280;32463;48.298;11.620;2023-04-02T03:10:46;95624.09;;;6.62;100.00
46724;BME280;32463;48.298;11.620;2023-04-02T03:13:25;95628.59;;;6.60;100.00
46724;BME280;32463;48.298;11.620;2023-04-02T03:15:59;95620.22;;;6.58;100.00
46724;BME280;32463;48.298;11.620;2023-04-02T03:21:04;95628.88;;;6.57;100.00
46724;BME280;32463;48.298;11.620;2023-04-02T03:23:40;95627.56;;;6.53;100.00
46724;BME280;32463;48.298;11.620;2023-04-02T03:26:25;95626.09;;;6.51;100.00
46724;BME280;32463;48.298;11.620;2023-04-02T03:29:25;95628.38;;;6.54;100.00
46724;BME280;32463;48.298;11.620;2023-04-02T03:32:04;95632.72;;;6.53;100.00
46724;BME280;32463;48.298;11.620;2023-04-02T03:34:41;95631.41;;;6.49;100.00
46724;BME280;32463;48.298;11.620;2023-04-02T03:40:23;95638.16;;;6.50;100.00
46724;BME280;32463;48.298;11.620;2023-04-02T03:43:01;95637.50;;;6.48;100.00
46724;BME280;32463;48.298;11.620;2023-04-02T03:45:59;95635.88;;;6.47;100.00
46724;BME280;32463;48.298;11.620;2023-04-02T03:48:38;95640.69;;;6.42;100.00
46724;BME280;32463;48.298;11.620;2023-04-02T03:51:13;95640.03;;;6.40;100.00
46724;BME280;32463;48.298;11.620;2023-04-02T03:53:42;95640.34;;;6.37;100.00
46724;BME280;32463;48.298;11.620;2023-04-02T03:58:58;95656.44;;;6.39;100.00
46724;BME280;32463;48.298;11.620;2023-04-02T04:01:36;95651.59;;;6.36;100.00
46724;BME280;32463;48.298;11.620;2023-04-02T04:04:15;95657.03;;;6.33;100.00
46724;BME280;32463;48.298;11.620;2023-04-02T04:06:45;95659.25;;;6.28;100.00
46724;BME280;32463;48.298;11.620;2023-04-02T04:09:32;95659.75;;;6.31;100.00
46724;BME280;32463;48.298;11.620;2023-04-02T04:14:50;95669.19;;;6.23;100.00
46724;BME280;32463;48.298;11.620;2023-04-02T04:20:17;95673.38;;;6.24;100.00
46724;BME280;32463;48.298;11.620;2023-04-02T04:22:48;95685.28;;;6.25;100.00
46724;BME280;32463;48.298;11.620;2023-04-02T04:25:29;95680.41;;;6.22;100.00
46724;BME280;32463;48.298;11.620;2023-04-02T04:28:22;95690.72;;;6.22;100.00
46724;BME280;32463;48.298;11.620;2023-04-02T04:31:01;95691.69;;;6.21;100.00
46724;BME280;32463;48.298;11.620;2023-04-02T04:33:33;95701.00;;;6.22;100.00
46724;BME280;32463;48.298;11.620;2023-04-02T04:36:20;95700.19;;;6.21;100.00
46724;BME280;32463;48.298;11.620;2023-04-02T04:38:54;95700.19;;;6.21;100.00
46724;BME280;32463;48.298;11.620;2023-04-02T04:41:33;95709.69;;;6.21;100.00
46724;BME280;32463;48.298;11.620;2023-04-02T04:44:20;95712.13;;;6.22;100.00
46724;BME280;32463;48.298;11.620;2023-04-02T04:46:54;95712.94;;;6.23;100.00
46724;BME280;32463;48.298;11.620;2023-04-02T04:49:45;95718.06;;;6.23;100.00
46724;BME280;32463;48.298;11.620;2023-04-02T04:52:25;95723.50;;;6.20;100.00
46724;BME280;32463;48.298;11.620;2023-04-02T04:54:54;95726.09;;;6.20;100.00
46724;BME280;32463;48.298;11.620;2023-04-02T04:57:33;95730.28;;;6.21;100.00
46724;BME280;32463;48.298;11.620;2023-04-02T05:00:11;95730.56;;;6.18;100.00
46724;BME280;32463;48.298;11.620;2023-04-02T05:02:46;95723.50;;;6.20;100.00
46724;BME280;32463;48.298;11.620;2023-04-02T05:05:26;95731.09;;;6.21;100.00
46724;BME280;32463;48.298;11.620;2023-04-02T05:07:58;95727.84;;;6.19;100.00
46724;BME280;32463;48.298;11.620;2023-04-02T05:10:50;95736.09;;;6.23;100.00
46724;BME280;32463;48.298;11.620;2023-04-02T05:13:38;95736.75;;;6.25;100.00
46724;BME280;32463;48.298;11.620;2023-04-02T05:16:14;95748.00;;;6.24;100.00
46724;BME280;32463;48.298;11.620;2023-04-02T05:18:47;95747.06;;;6.25;100.00
46724;BME280;32463;48.298;11.620;2023-04-02T05:26:24;95750.28;;;6.27;100.00
46724;BME280;32463;48.298;11.620;2023-04-02T05:32:05;95753.53;;;6.29;100.00
46724;BME280;32463;48.298;11.620;2023-04-02T05:34:38;95760.59;;;6.27;100.00
46724;BME280;32463;48.298;11.620;2023-04-02T05:37:13;95763.00;;;6.28;100.00
46724;BME280;32463;48.298;11.620;2023-04-02T05:39:44;95766.53;;;6.27;100.00
46724;BME280;32463;48.298;11.620;2023-04-02T05:42:33;95770.31;;;6.33;100.00
46724;BME280;32463;48.298;11.620;2023-04-02T05:47:56;95772.59;;;6.36;100.00
46724;BME280;32463;48.298;11.620;2023-04-02T05:50:32;95779.69;;;6.42;100.00
46724;BME280;32463;48.298;11.620;2023-04-02T05:55:39;95787.81;;;6.47;100.00
46724;BME280;32463;48.298;11.620;2023-04-02T05:58:15;95777.66;;;6.46;100.00
46724;BME280;32463;48.298;11.620;2023-04-02T06:00:50;95795.31;;;6.58;100.00
46724;BME280;32463;48.298;11.620;2023-04-02T06:05:52;95801.81;;;6.62;100.00
46724;BME280;32463;48.298;11.620;2023-04-02T06:08:34;95797.22;;;6.56;100.00
46724;BME280;32463;48.298;11.620;2023-04-02T06:11:24;95799.06;;;6.64;100.00
46724;BME280;32463;48.298;11.620;2023-04-02T06:13:53;95806.94;;;6.62;100.00
46724;BME280;32463;48.298;11.620;2023-04-02T06:16:25;95804.22;;;6.64;100.00
46724;BME280;32463;48.298;11.620;2023-04-02T06:18:51;95798.28;;;6.63;100.00
46724;BME280;32463;48.298;11.620;2023-04-02T06:21:19;95812.84;;;6.72;100.00
46724;BME280;32463;48.298;11.620;2023-04-02T06:23:52;95809.94;;;6.75;100.00
46724;BME280;32463;48.298;11.620;2023-04-02T06:26:32;95809.13;;;6.75;100.00
46724;BME280;32463;48.298;11.620;2023-04-02T06:29:32;95815.63;;;6.79;100.00
46724;BME280;32463;48.298;11.620;2023-04-02T06:32:05;95816.81;;;6.85;100.00
46724;BME280;32463;48.298;11.620;2023-04-02T06:34:35;95828.38;;;6.98;100.00
46724;BME280;32463;48.298;11.620;2023-04-02T06:37:15;95828.84;;;7.20;100.00
46724;BME280;32463;48.298;11.620;2023-04-02T06:39:43;95837.25;;;7.04;100.00
46724;BME280;32463;48.298;11.620;2023-04-02T06:42:23;95831.38;;;6.94;100.00
46724;BME280;32463;48.298;11.620;2023-04-02T06:44:52;95834.72;;;7.12;100.00
46724;BME280;32463;48.298;11.620;2023-04-02T06:47:23;95844.91;;;7.14;100.00
46724;BME280;32463;48.298;11.620;2023-04-02T06:50:14;95843.19;;;7.22;100.00
46724;BME280;32463;48.298;11.620;2023-04-02T06:52:54;95859.34;;;7.24;100.00
46724;BME280;32463;48.298;11.620;2023-04-02T06:57:58;95849.31;;;7.21;100.00
46724;BME280;32463;48.298;11.620;2023-04-02T07:00:42;95856.03;;;7.58;100.00
46724;BME280;32463;48.298;11.620;2023-04-02T07:03:22;95853.91;;;7.53;100.00
46724;BME280;32463;48.298;11.620;2023-04-02T07:05:49;95854.69;;;7.54;100.00
46724;BME280;32463;48.298;11.620;2023-04-02T07:08:15;95852.78;;;7.56;100.00
46724;BME280;32463;48.298;11.620;2023-04-02T07:10:42;95857.53;;;7.42;100.00
46724;BME280;32463;48.298;11.620;2023-04-02T07:13:13;95859.25;;;7.60;100.00
46724;BME280;32463;48.298;11.620;2023-04-02T07:15:40;95864.50;;;7.76;100.00
46724;BME280;32463;48.298;11.620;2023-04-02T07:18:20;95866.63;;;7.81;100.00
46724;BME280;32463;48.298;11.620;2023-04-02T07:20:48;95861.56;;;7.71;100.00
46724;BME280;32463;48.298;11.620;2023-04-02T07:23:14;95862.88;;;7.75;100.00
46724;BME280;32463;48.298;11.620;2023-04-02T07:25:41;95872.69;;;7.97;100.00
46724;BME280;32463;48.298;11.620;2023-04-02T07:28:07;95872.47;;;8.17;100.00
46724;BME280;32463;48.298;11.620;2023-04-02T07:30:34;95881.84;;;8.26;100.00
46724;BME280;32463;48.298;11.620;2023-04-02T07:33:00;95879.72;;;8.47;100.00
46724;BME280;32463;48.298;11.620;2023-04-02T07:35:27;95880.03;;;8.44;100.00
46724;BME280;32463;48.298;11.620;2023-04-02T07:37:53;95874.09;;;8.26;100.00
46724;BME280;32463;48.298;11.620;2023-04-02T07:40:20;95891.56;;;8.32;100.00
46724;BME280;32463;48.298;11.620;2023-04-02T07:42:49;95886.34;;;8.58;100.00
46724;BME280;32463;48.298;11.620;2023-04-02T07:45:15;95893.38;;;8.82;100.00
46724;BME280;32463;48.298;11.620;2023-04-02T07:47:42;95896.63;;;8.84;100.00
46724;BME280;32463;48.298;11.620;2023-04-02T07:50:09;95901.41;;;8.70;100.00
46724;BME280;32463;48.298;11.620;2023-04-02T07:52:42;95898.91;;;9.11;100.00
46724;BME280;32463;48.298;11.620;2023-04-02T07:55:08;95912.13;;;8.84;100.00
46724;BME280;32463;48.298;11.620;2023-04-02T07:57:45;95906.69;;;9.35;100.00
46724;BME280;32463;48.298;11.620;2023-04-02T08:00:14;95912.31;;;9.23;100.00
46724;BME280;32463;48.298;11.620;2023-04-02T08:02:40;95899.56;;;9.54;100.00
46724;BME280;32463;48.298;11.620;2023-04-02T08:05:07;95909.59;;;9.73;100.00
46724;BME280;32463;48.298;11.620;2023-04-02T08:07:34;95915.41;;;9.51;100.00
46724;BME280;32463;48.298;11.620;2023-04-02T08:10:03;95911.38;;;9.32;100.00
46724;BME280;32463;48.298;11.620;2023-04-02T08:12:29;95913.44;;;9.93;100.00
46724;BME280;32463;48.298;11.620;2023-04-02T08:14:56;95917.34;;;9.73;100.00
46724;BME280;32463;48.298;11.620;2023-04-02T08:17:22;95918.00;;;9.75;100.00
46724;BME280;32463;48.298;11.620;2023-04-02T08:19:49;95920.22;;;10.02;100.00
46724;BME280;32463;48.298;11.620;2023-04-02T08:22:15;95923.19;;;9.59;100.00
46724;BME280;32463;48.298;11.620;2023-04-02T08:24:42;95927.28;;;10.17;100.00
46724;BME280;32463;48.298;11.620;2023-04-02T08:27:12;95939.97;;;9.87;100.00
46724;BME280;32463;48.298;11.620;2023-04-02T08:29:39;95942.88;;;10.00;100.00
46724;BME280;32463;48.298;11.620;2023-04-02T08:32:06;95940.63;;;9.97;100.00
46724;BME280;32463;48.298;11.620;2023-04-02T08:34:32;95943.22;;;9.49;100.00
46724;BME280;32463;48.298;11.620;2023-04-02T08:36:59;95952.91;;;9.95;100.00
46724;BME280;32463;48.298;11.620;2023-04-02T08:39:25;95928.75;;;10.11;100.00
46724;BME280;32463;48.298;11.620;2023-04-02T08:42:18;95950.34;;;9.87;100.00
46724;BME280;32463;48.298;11.620;2023-04-02T08:44:59;95944.78;;;10.14;100.00
46724;BME280;32463;48.298;11.620;2023-04-02T08:47:33;95955.41;;;10.44;100.00
46724;BME280;32463;48.298;11.620;2023-04-02T08:52:51;95956.03;;;10.54;100.00
46724;BME280;32463;48.298;11.620;2023-04-02T08:55:35;95958.75;;;10.69;100.00
46724;BME280;32463;48.298;11.620;2023-04-02T09:00:44;95959.91;;;10.58;100.00
46724;BME280;32463;48.298;11.620;2023-04-02T09:05:49;95958.34;;;10.88;100.00
46724;BME280;32463;48.298;11.620;2023-04-02T09:08:20;95954.09;;;11.26;100.00
46724;BME280;32463;48.298;11.620;2023-04-02T09:10:59;95962.47;;;11.59;95.86
46724;BME280;32463;48.298;11.620;2023-04-02T09:13:29;95961.75;;;11.88;91.72
46724;BME280;32463;48.298;11.620;2023-04-02T09:16:17;95970.59;;;11.79;94.44
46724;BME280;32463;48.298;11.620;2023-04-02T09:18:47;95960.63;;;12.05;89.31
46724;BME280;32463;48.298;11.620;2023-04-02T09:21:32;95968.34;;;12.13;88.85
46724;BME280;32463;48.298;11.620;2023-04-02T09:23:59;95972.59;;;11.69;91.23
46724;BME280;32463;48.298;11.620;2023-04-02T09:26:28;95975.84;;;11.17;98.48
46724;BME280;32463;48.298;11.620;2023-04-02T09:29:14;95979.69;;;10.98;97.51
46724;BME280;32463;48.298;11.620;2023-04-02T09:32:07;95982.03;;;11.16;100.00
46724;BME280;32463;48.298;11.620;2023-04-02T09:34:37;95985.22;;;10.95;100.00
46724;BME280;32463;48.298;11.620;2023-04-02T09:37:13;95983.34;;;11.12;99.84
46724;BME280;32463;48.298;11.620;2023-04-02T09:39:41;95979.97;;;11.34;98.73
46724;BME280;32463;48.298;11.620;2023-04-02T09:42:28;95985.06;;;11.96;91.84
46724;BME280;32463;48.298;11.620;2023-04-02T09:45:31;95994.28;;;11.53;91.51
46724;BME280;32463;48.298;11.620;2023-04-02T09:47:57;95991.06;;;11.97;90.17
46724;BME280;32463;48.298;11.620;2023-04-02T09:50:26;95995.44;;;11.96;90.91
46724;BME280;32463;48.298;11.620;2023-04-02T09:52:53;95998.91;;;12.11;88.67
46724;BME280;32463;48.298;11.620;2023-04-02T09:55:22;95992.75;;;12.57;88.04
46724;BME280;32463;48.298;11.620;2023-04-02T09:58:10;95999.00;;;13.21;79.43
46724;BME280;32463;48.298;11.620;2023-04-02T10:00:38;96003.44;;;12.76;80.00
46724;BME280;32463;48.298;11.620;2023-04-02T10:03:27;96009.50;;;12.54;78.37
46724;BME280;32463;48.298;11.620;2023-04-02T10:06:12;96011.47;;;11.85;85.45
46724;BME280;32463;48.298;11.620;2023-04-02T10:08:41;96007.44;;;11.97;85.48
46724;BME280;32463;48.298;11.620;2023-04-02T10:11:16;96010.63;;;12.07;86.99
46724;BME280;32463;48.298;11.620;2023-04-02T10:14:01;96021.53;;;12.85;81.20
46724;BME280;32463;48.298;11.620;2023-04-02T10:16:41;96011.28;;;13.27;77.70
46724;BME280;32463;48.298;11.620;2023-04-02T10:19:30;96012.84;;;12.92;90.98
46724;BME280;32463;48.298;11.620;2023-04-02T10:22:02;96024.69;;;12.65;95.36
46724;BME280;32463;48.298;11.620;2023-04-02T10:24:30;96013.47;;;12.50;97.35
46724;BME280;32463;48.298;11.620;2023-04-02T10:32:57;96024.78;;;11.82;100.00
46724;BME280;32463;48.298;11.620;2023-04-02T10:38:23;96026.28;;;11.99;100.00
46724;BME280;32463;48.298;11.620;2023-04-02T10:41:31;96036.03;;;12.35;96.85
46724;BME280;32463;48.298;11.620;2023-04-02T10:44:17;96032.44;;;11.98;98.82
46724;BME280;32463;48.298;11.620;2023-04-02T10:59:46;96047.97;;;12.06;97.08
46724;BME280;32463;48.298;11.620;2023-04-02T11:11:02;96040.84;;;13.56;85.25
46724;BME280;32463;48.298;11.620;2023-04-02T11:13:57;96048.69;;;14.20;79.82
46724;BME280;32463;48.298;11.620;2023-04-02T11:16:26;96044.97;;;14.07;75.89
46724;BME280;32463;48.298;11.620;2023-04-02T11:24:14;96054.13;;;13.61;76.87
46724;BME280;32463;48.298;11.620;2023-04-02T11:26:48;96054.88;;;13.76;75.31
46724;BME280;32463;48.298;11.620;2023-04-02T11:31:49;96065.25;;;13.19;80.85
46724;BME280;32463;48.298;11.620;2023-04-02T11:37:10;96082.53;;;11.92;100.00
46724;BME280;32463;48.298;11.620;2023-04-02T11:39:56;96082.91;;;11.11;100.00
46724;BME280;32463;48.298;11.620;2023-04-02T11:42:28;96090.47;;;10.73;100.00
46724;BME280;32463;48.298;11.620;2023-04-02T11:45:00;96085.63;;;10.13;100.00
46724;BME280;32463;48.298;11.620;2023-04-02T11:47:28;96086.25;;;9.83;100.00
46724;BME280;32463;48.298;11.620;2023-04-02T11:52:30;96088.72;;;10.01;100.00
46724;BME280;32463;48.298;11.620;2023-04-02T11:55:18;96094.66;;;9.85;100.00
46724;BME280;32463;48.298;11.620;2023-04-02T12:11:55;96117.22;;;9.51;100.00
46724;BME280;32463;48.298;11.620;2023-04-02T12:14:46;96121.16;;;9.63;100.00
46724;BME280;32463;48.298;11.620;2023-04-02T12:17:31;96116.66;;;9.73;100.00
46724;BME280;32463;48.298;11.620;2023-04-02T12:20:12;96123.81;;;9.87;100.00
46724;BME280;32463;48.298;11.620;2023-04-02T12:22:51;96117.59;;;9.64;100.00
46724;BME280;32463;48.298;11.620;2023-04-02T12:25:29;96118.44;;;9.80;100.00
46724;BME280;32463;48.298;11.620;2023-04-02T12:28:13;96112.44;;;9.80;100.00
46724;BME280;32463;48.298;11.620;2023-04-02T12:30:42;96132.34;;;9.79;100.00
46724;BME280;32463;48.298;11.620;2023-04-02T12:35:49;96129.25;;;9.60;100.00
46724;BME280;32463;48.298;11.620;2023-04-02T12:38:30;96130.41;;;9.65;100.00
46724;BME280;32463;48.298;11.620;2023-04-02T12:41:00;96130.84;;;9.53;100.00
46724;BME280;32463;48.298;11.620;2023-04-02T12:43:29;96128.34;;;9.77;100.00
46724;BME280;32463;48.298;11.620;2023-04-02T12:46:03;96122.00;;;9.79;100.00
46724;BME280;32463;48.298;11.620;2023-04-02T12:48:31;96125.75;;;9.85;100.00
46724;BME280;32463;48.298;11.620;2023-04-02T12:50:59;96127.50;;;9.68;100.00
46724;BME280;32463;48.298;11.620;2023-04-02T12:53:36;96127.94;;;9.48;100.00
46724;BME280;32463;48.298;11.620;2023-04-02T12:56:04;96128.25;;;9.53;100.00
46724;BME280;32463;48.298;11.620;2023-04-02T12:58:41;96127.53;;;9.34;100.00
46724;BME280;32463;48.298;11.620;2023-04-02T13:01:18;96129.56;;;9.57;100.00
46724;BME280;32463;48.298;11.620;2023-04-02T13:04:08;96132.38;;;9.88;100.00
46724;BME280;32463;48.298;11.620;2023-04-02T13:06:37;96132.53;;;9.78;100.00
46724;BME280;32463;48.298;11.620;2023-04-02T13:09:06;96126.41;;;9.95;100.00
46724;BME280;32463;48.298;11.620;2023-04-02T13:11:50;96131.00;;;10.34;100.00
46724;BME280;32463;48.298;11.620;2023-04-02T13:14:19;96134.88;;;10.46;100.00
46724;BME280;32463;48.298;11.620;2023-04-02T13:16:46;96122.91;;;10.61;100.00
46724;BME280;32463;48.298;11.620;2023-04-02T13:19:19;96127.75;;;10.64;100.00
46724;BME280;32463;48.298;11.620;2023-04-02T13:21:46;96126.09;;;10.14;100.00
46724;BME280;32463;48.298;11.620;2023-04-02T13:26:47;96132.72;;;9.93;100.00
46724;BME280;32463;48.298;11.620;2023-04-02T13:31:46;96136.25;;;9.84;100.00
46724;BME280;32463;48.298;11.620;2023-04-02T13:34:13;96140.31;;;9.94;100.00
46724;BME280;32463;48.298;11.620;2023-04-02T13:36:39;96131.13;;;10.00;100.00
46724;BME280;32463;48.298;11.620;2023-04-02T13:39:06;96133.38;;;10.11;100.00
46724;BME280;32463;48.298;11.620;2023-04-02T13:41:38;96137.91;;;9.93;100.00
46724;BME280;32463;48.298;11.620;2023-04-02T13:44:06;96139.19;;;9.97;100.00
46724;BME280;32463;48.298;11.620;2023-04-02T13:46:37;96146.13;;;9.88;100.00
46724;BME280;32463;48.298;11.620;2023-04-02T13:49:03;96146.66;;;9.50;100.00
46724;BME280;32463;48.298;11.620;2023-04-02T13:51:35;96155.41;;;8.89;100.00
46724;BME280;32463;48.298;11.620;2023-04-02T13:54:06;96162.47;;;8.35;100.00
46724;BME280;32463;48.298;11.620;2023-04-02T13:56:34;96175.75;;;8.22;100.00
46724;BME280;32463;48.298;11.620;2023-04-02T13:59:00;96181.84;;;8.03;100.00
46724;BME280;32463;48.298;11.620;2023-04-02T14:01:26;96176.00;;;7.84;100.00
46724;BME280;32463;48.298;11.620;2023-04-02T14:03:53;96185.50;;;7.83;100.00
46724;BME280;32463;48.298;11.620;2023-04-02T14:06:35;96187.13;;;7.84;100.00
46724;BME280;32463;48.298;11.620;2023-04-02T14:19:35;96195.47;;;7.51;100.00
46724;BME280;32463;48.298;11.620;2023-04-02T14:22:14;96204.53;;;7.55;100.00
46724;BME280;32463;48.298;11.620;2023-04-02T14:25:01;96201.41;;;7.61;100.00
46724;BME280;32463;48.298;11.620;2023-04-02T14:27:36;96206.16;;;7.83;100.00
46724;BME280;32463;48.298;11.620;2023-04-02T14:30:26;96205.31;;;7.92;100.00
46724;BME280;32463;48.298;11.620;2023-04-02T14:33:05;96205.47;;;8.08;100.00
46724;BME280;32463;48.298;11.620;2023-04-02T14:35:42;96197.09;;;7.97;100.00
46724;BME280;32463;48.298;11.620;2023-04-02T14:38:19;96201.63;;;8.13;100.00
46724;BME280;32463;48.298;11.620;2023-04-02T14:40:58;96209.91;;;8.34;100.00
46724;BME280;32463;48.298;11.620;2023-04-02T14:43:33;96205.22;;;8.47;100.00
46724;BME280;32463;48.298;11.620;2023-04-02T14:46:04;96209.41;;;8.48;100.00
46724;BME280;32463;48.298;11.620;2023-04-02T14:48:51;96205.28;;;8.37;100.00
46724;BME280;32463;48.298;11.620;2023-04-02T14:56:24;96207.75;;;7.94;100.00
46724;BME280;32463;48.298;11.620;2023-04-02T14:59:05;96219.16;;;7.91;100.00
46724;BME280;32463;48.298;11.620;2023-04-02T15:01:40;96225.13;;;7.92;100.00
46724;BME280;32463;48.298;11.620;2023-04-02T15:04:17;96221.06;;;7.89;100.00
46724;BME280;32463;48.298;11.620;2023-04-02T15:06:51;96224.38;;;7.82;100.00
46724;BME280;32463;48.298;11.620;2023-04-02T15:11:56;96224.97;;;7.66;100.00
46724;BME280;32463;48.298;11.620;2023-04-02T15:14:46;96239.88;;;7.72;100.00
46724;BME280;32463;48.298;11.620;2023-04-02T15:17:13;96243.91;;;7.57;100.00
46724;BME280;32463;48.298;11.620;2023-04-02T15:19:40;96240.81;;;7.53;100.00
46724;BME280;32463;48.298;11.620;2023-04-02T15:22:24;96243.53;;;7.52;100.00
46724;BME280;32463;48.298;11.620;2023-04-02T15:32:53;96253.31;;;7.75;100.00
46724;BME280;32463;48.298;11.620;2023-04-02T15:35:38;96260.34;;;7.83;100.00
46724;BME280;32463;48.298;11.620;2023-04-02T15:43:40;96268.25;;;7.44;100.00
46724;BME280;32463;48.298;11.620;2023-04-02T15:52:37;96284.63;;;7.06;100.00
46724;BME280;32463;48.298;11.620;2023-04-02T15:55:25;96292.91;;;7.00;100.00
46724;BME280;32463;48.298;11.620;2023-04-02T15:58:10;96293.31;;;6.96;100.00
46724;BME280;32463;48.298;11.620;2023-04-02T16:06:26;96309.47;;;6.79;100.00
46724;BME280;32463;48.298;11.620;2023-04-02T16:11:58;96307.97;;;6.86;100.00
46724;BME280;32463;48.298;11.620;2023-04-02T16:14:29;96318.56;;;6.83;100.00
46724;BME280;32463;48.298;11.620;2023-04-02T16:17:01;96316.13;;;6.71;100.00
46724;BME280;32463;48.298;11.620;2023-04-02T16:19:45;96325.34;;;6.64;100.00
46724;BME280;32463;48.298;11.620;2023-04-02T16:22:27;96324.78;;;6.61;100.00
46724;BME280;32463;48.298;11.620;2023-04-02T16:25:14;96330.75;;;6.61;100.00